sensor_id;sensor_type;location;lat;lon;timestamp;temperature;humidity
39103;DHT22;24847;48.218;16.414;2024-03-22T00:04:16;11.50;81.90
39103;DHT22;24847;48.218;16.414;2024-03-22T00:09:20;11.50;82.20
39103;DHT22;24847;48.218;16.414;2024-03-22T00:14:22;11.40;83.00
39103;DHT22;24847;48.218;16.414;2024-03-22T00:19:24;11.60;81.80
39103;DHT22;24847;48.218;16.414;2024-03-22T00:24:28;11.50;81.40
39103;DHT22;24847;48.218;16.414;2024-03-22T00:29:30;11.50;82.60
39103;DHT22;24847;48.218;16.414;2024-03-22T00:34:33;11.60;82.90
39103;DHT22;24847;48.218;16.414;2024-03-22T00:39:36;11.60;81.40
39103;DHT22;24847;48.218;16.414;2024-03-22T00:44:39;11.60;82.30
39103;DHT22;24847;48.218;16.414;2024-03-22T00:49:41;11.50;82.30
39103;DHT22;24847;48.218;16.414;2024-03-22T00:54:45;11.70;80.50
39103;DHT22;24847;48.218;16.414;2024-03-22T00:59:47;11.60;83.00
39103;DHT22;24847;48.218;16.414;2024-03-22T01:04:49;11.50;81.90
39103;DHT22;24847;48.218;16.414;2024-03-22T01:09:53;11.40;83.10
39103;DHT22;24847;48.218;16.414;2024-03-22T01:14:55;11.50;82.10
39103;DHT22;24847;48.218;16.414;2024-03-22T01:19:57;11.50;81.00
39103;DHT22;24847;48.218;16.414;2024-03-22T01:25:01;11.50;82.50
39103;DHT22;24847;48.218;16.414;2024-03-22T01:30:04;11.50;82.10
39103;DHT22;24847;48.218;16.414;2024-03-22T01:35:08;11.50;82.30
39103;DHT22;24847;48.218;16.414;2024-03-22T01:40:13;11.70;82.90
39103;DHT22;24847;48.218;16.414;2024-03-22T01:45:15;11.50;82.90
39103;DHT22;24847;48.218;16.414;2024-03-22T01:50:18;11.40;83.00
39103;DHT22;24847;48.218;16.414;2024-03-22T01:55:21;11.50;82.50
39103;DHT22;24847;48.218;16.414;2024-03-22T02:00:24;11.50;82.40
39103;DHT22;24847;48.218;16.414;2024-03-22T02:05:26;11.50;82.20
39103;DHT22;24847;48.218;16.414;2024-03-22T02:10:30;11.50;81.70
39103;DHT22;24847;48.218;16.414;2024-03-22T02:15:32;11.50;82.80
39103;DHT22;24847;48.218;16.414;2024-03-22T02:20:34;11.60;80.90
39103;DHT22;24847;48.218;16.414;2024-03-22T02:25:38;11.50;83.30
39103;DHT22;24847;48.218;16.414;2024-03-22T02:30:40;11.60;83.70
39103;DHT22;24847;48.218;16.414;2024-03-22T02:35:42;11.70;83.90
39103;DHT22;24847;48.218;16.414;2024-03-22T02:40:47;11.70;82.30
39103;DHT22;24847;48.218;16.414;2024-03-22T02:45:50;11.70;82.90
39103;DHT22;24847;48.218;16.414;2024-03-22T02:50:55;11.70;81.90
39103;DHT22;24847;48.218;16.414;2024-03-22T02:56:01;11.70;81.70
39103;DHT22;24847;48.218;16.414;2024-03-22T03:01:03;11.60;82.30
39103;DHT22;24847;48.218;16.414;2024-03-22T03:06:06;11.40;81.00
39103;DHT22;24847;48.218;16.414;2024-03-22T03:11:11;11.60;81.80
39103;DHT22;24847;48.218;16.414;2024-03-22T03:16:13;11.60;81.90
39103;DHT22;24847;48.218;16.414;2024-03-22T03:21:15;11.50;81.60
39103;DHT22;24847;48.218;16.414;2024-03-22T03:26:19;11.40;81.40
39103;DHT22;24847;48.218;16.414;2024-03-22T03:31:21;11.50;81.70
39103;DHT22;24847;48.218;16.414;2024-03-22T03:36:23;11.50;82.20
39103;DHT22;24847;48.218;16.414;2024-03-22T03:41:26;11.50;81.90
39103;DHT22;24847;48.218;16.414;2024-03-22T03:46:29;11.40;81.60
39103;DHT22;24847;48.218;16.414;2024-03-22T03:51:32;11.50;81.60
39103;DHT22;24847;48.218;16.414;2024-03-22T03:56:35;11.40;81.60
39103;DHT22;24847;48.218;16.414;2024-03-22T04:01:37;11.50;80.70
39103;DHT22;24847;48.218;16.414;2024-03-22T04:06:41;11.40;80.20
39103;DHT22;24847;48.218;16.414;2024-03-22T04:11:44;11.40;81.40
39103;DHT22;24847;48.218;16.414;2024-03-22T04:16:48;11.30;81.90
39103;DHT22;24847;48.218;16.414;2024-03-22T04:21:50;11.40;80.60
39103;DHT22;24847;48.218;16.414;2024-03-22T04:26:54;11.40;81.90
39103;DHT22;24847;48.218;16.414;2024-03-22T04:31:56;11.40;80.30
39103;DHT22;24847;48.218;16.414;2024-03-22T04:36:58;11.30;80.50
39103;DHT22;24847;48.218;16.414;2024-03-22T04:42:02;11.40;79.80
39103;DHT22;24847;48.218;16.414;2024-03-22T04:47:05;11.40;81.10
39103;DHT22;24847;48.218;16.414;2024-03-22T04:52:07;11.40;80.30
39103;DHT22;24847;48.218;16.414;2024-03-22T04:57:10;11.40;80.30
39103;DHT22;24847;48.218;16.414;2024-03-22T05:02:12;11.40;78.90
39103;DHT22;24847;48.218;16.414;2024-03-22T05:07:15;11.30;79.40
39103;DHT22;24847;48.218;16.414;2024-03-22T05:12:19;11.40;79.60
39103;DHT22;24847;48.218;16.414;2024-03-22T05:17:21;11.40;82.10
39103;DHT22;24847;48.218;16.414;2024-03-22T05:22:23;11.40;80.30
39103;DHT22;24847;48.218;16.414;2024-03-22T05:27:27;11.50;81.40
39103;DHT22;24847;48.218;16.414;2024-03-22T05:32:29;11.50;78.90
39103;DHT22;24847;48.218;16.414;2024-03-22T05:37:31;11.40;79.60
39103;DHT22;24847;48.218;16.414;2024-03-22T05:42:35;11.40;80.90
39103;DHT22;24847;48.218;16.414;2024-03-22T05:47:37;11.40;78.70
39103;DHT22;24847;48.218;16.414;2024-03-22T05:52:39;11.50;78.90
39103;DHT22;24847;48.218;16.414;2024-03-22T05:57:43;11.60;78.60
39103;DHT22;24847;48.218;16.414;2024-03-22T06:02:45;11.60;78.20
39103;DHT22;24847;48.218;16.414;2024-03-22T06:07:47;11.60;79.10
39103;DHT22;24847;48.218;16.414;2024-03-22T06:12:51;11.70;78.80
39103;DHT22;24847;48.218;16.414;2024-03-22T06:17:53;11.70;78.00
39103;DHT22;24847;48.218;16.414;2024-03-22T06:22:55;11.70;77.10
39103;DHT22;24847;48.218;16.414;2024-03-22T06:28:00;11.60;78.50
39103;DHT22;24847;48.218;16.414;2024-03-22T06:33:02;11.60;78.00
39103;DHT22;24847;48.218;16.414;2024-03-22T06:38:05;11.60;77.90
39103;DHT22;24847;48.218;16.414;2024-03-22T06:43:08;11.50;78.50
39103;DHT22;24847;48.218;16.414;2024-03-22T06:48:10;11.50;77.20
39103;DHT22;24847;48.218;16.414;2024-03-22T06:53:13;11.70;77.50
39103;DHT22;24847;48.218;16.414;2024-03-22T06:58:16;11.80;78.90
39103;DHT22;24847;48.218;16.414;2024-03-22T07:03:18;12.00;78.00
39103;DHT22;24847;48.218;16.414;2024-03-22T07:08:22;12.00;77.60
39103;DHT22;24847;48.218;16.414;2024-03-22T07:13:26;12.00;76.70
39103;DHT22;24847;48.218;16.414;2024-03-22T07:18:29;12.20;76.20
39103;DHT22;24847;48.218;16.414;2024-03-22T07:23:31;12.30;78.10
39103;DHT22;24847;48.218;16.414;2024-03-22T07:28:35;12.10;75.40
39103;DHT22;24847;48.218;16.414;2024-03-22T07:33:37;12.20;76.20
39103;DHT22;24847;48.218;16.414;2024-03-22T07:38:39;12.10;76.00
39103;DHT22;24847;48.218;16.414;2024-03-22T07:43:43;12.30;76.90
39103;DHT22;24847;48.218;16.414;2024-03-22T07:48:45;12.50;75.80
39103;DHT22;24847;48.218;16.414;2024-03-22T07:53:47;12.60;75.30
39103;DHT22;24847;48.218;16.414;2024-03-22T07:58:51;12.50;73.40
39103;DHT22;24847;48.218;16.414;2024-03-22T08:03:53;12.60;73.20
39103;DHT22;24847;48.218;16.414;2024-03-22T08:08:55;12.50;72.90
39103;DHT22;24847;48.218;16.414;2024-03-22T08:13:59;12.60;72.80
39103;DHT22;24847;48.218;16.414;2024-03-22T08:19:04;12.50;72.70
39103;DHT22;24847;48.218;16.414;2024-03-22T08:24:06;12.50;73.40
39103;DHT22;24847;48.218;16.414;2024-03-22T08:29:09;12.80;71.50
39103;DHT22;24847;48.218;16.414;2024-03-22T08:34:12;12.80;71.90
39103;DHT22;24847;48.218;16.414;2024-03-22T08:39:14;12.80;72.00
39103;DHT22;24847;48.218;16.414;2024-03-22T08:44:18;13.00;69.90
39103;DHT22;24847;48.218;16.414;2024-03-22T08:49:20;13.00;70.50
39103;DHT22;24847;48.218;16.414;2024-03-22T08:54:24;12.90;71.30
39103;DHT22;24847;48.218;16.414;2024-03-22T08:59:27;13.00;70.00
39103;DHT22;24847;48.218;16.414;2024-03-22T09:04:29;13.10;69.70
39103;DHT22;24847;48.218;16.414;2024-03-22T09:09:32;13.10;69.30
39103;DHT22;24847;48.218;16.414;2024-03-22T09:14:35;13.20;69.30
39103;DHT22;24847;48.218;16.414;2024-03-22T09:19:37;13.30;68.50
39103;DHT22;24847;48.218;16.414;2024-03-22T09:24:40;13.30;69.00
39103;DHT22;24847;48.218;16.414;2024-03-22T09:29:43;13.60;68.70
39103;DHT22;24847;48.218;16.414;2024-03-22T09:34:45;13.60;68.40
39103;DHT22;24847;48.218;16.414;2024-03-22T09:39:50;13.70;67.80
39103;DHT22;24847;48.218;16.414;2024-03-22T09:44:54;14.00;68.40
39103;DHT22;24847;48.218;16.414;2024-03-22T09:49:56;14.30;65.40
39103;DHT22;24847;48.218;16.414;2024-03-22T09:54:59;14.40;64.80
39103;DHT22;24847;48.218;16.414;2024-03-22T10:00:07;14.40;64.30
39103;DHT22;24847;48.218;16.414;2024-03-22T10:05:10;14.70;63.80
39103;DHT22;24847;48.218;16.414;2024-03-22T10:10:13;14.80;60.90
39103;DHT22;24847;48.218;16.414;2024-03-22T10:15:17;15.10;62.50
39103;DHT22;24847;48.218;16.414;2024-03-22T10:20:19;15.00;60.60
39103;DHT22;24847;48.218;16.414;2024-03-22T10:25:23;15.00;62.90
39103;DHT22;24847;48.218;16.414;2024-03-22T10:30:27;14.80;61.20
39103;DHT22;24847;48.218;16.414;2024-03-22T10:35:32;14.90;60.40
39103;DHT22;24847;48.218;16.414;2024-03-22T10:40:35;15.00;59.10
39103;DHT22;24847;48.218;16.414;2024-03-22T10:45:40;14.80;59.30
39103;DHT22;24847;48.218;16.414;2024-03-22T10:50:43;15.10;59.00
39103;DHT22;24847;48.218;16.414;2024-03-22T10:55:47;15.10;58.30
39103;DHT22;24847;48.218;16.414;2024-03-22T11:00:53;15.50;56.90
39103;DHT22;24847;48.218;16.414;2024-03-22T11:05:56;15.40;56.40
39103;DHT22;24847;48.218;16.414;2024-03-22T11:11:09;15.40;58.00
39103;DHT22;24847;48.218;16.414;2024-03-22T11:16:14;15.60;55.50
39103;DHT22;24847;48.218;16.414;2024-03-22T11:21:16;15.50;56.70
39103;DHT22;24847;48.218;16.414;2024-03-22T11:26:19;15.60;55.20
39103;DHT22;24847;48.218;16.414;2024-03-22T11:31:23;15.50;57.10
39103;DHT22;24847;48.218;16.414;2024-03-22T11:36:29;15.90;53.80
39103;DHT22;24847;48.218;16.414;2024-03-22T11:41:32;15.30;57.40
39103;DHT22;24847;48.218;16.414;2024-03-22T11:46:36;16.00;57.40
39103;DHT22;24847;48.218;16.414;2024-03-22T11:51:39;16.00;55.70
39103;DHT22;24847;48.218;16.414;2024-03-22T11:56:41;16.30;54.20
39103;DHT22;24847;48.218;16.414;2024-03-22T12:01:45;16.30;52.80
39103;DHT22;24847;48.218;16.414;2024-03-22T12:06:47;16.10;54.10
39103;DHT22;24847;48.218;16.414;2024-03-22T12:11:49;15.90;51.90
39103;DHT22;24847;48.218;16.414;2024-03-22T12:16:52;16.40;52.80
39103;DHT22;24847;48.218;16.414;2024-03-22T12:21:55;16.50;51.40
39103;DHT22;24847;48.218;16.414;2024-03-22T12:26:58;16.80;52.30
39103;DHT22;24847;48.218;16.414;2024-03-22T12:32:02;16.60;51.80
39103;DHT22;24847;48.218;16.414;2024-03-22T12:37:05;16.60;51.00
39103;DHT22;24847;48.218;16.414;2024-03-22T12:42:07;16.60;51.90
39103;DHT22;24847;48.218;16.414;2024-03-22T12:47:11;16.50;50.80
39103;DHT22;24847;48.218;16.414;2024-03-22T12:52:13;16.40;52.10
39103;DHT22;24847;48.218;16.414;2024-03-22T12:57:15;16.40;51.70
39103;DHT22;24847;48.218;16.414;2024-03-22T13:02:19;16.40;51.80
39103;DHT22;24847;48.218;16.414;2024-03-22T13:07:21;16.50;53.00
39103;DHT22;24847;48.218;16.414;2024-03-22T13:12:23;16.30;51.60
39103;DHT22;24847;48.218;16.414;2024-03-22T13:17:27;16.40;50.70
39103;DHT22;24847;48.218;16.414;2024-03-22T13:22:30;16.60;51.40
39103;DHT22;24847;48.218;16.414;2024-03-22T13:27:32;16.50;51.30
39103;DHT22;24847;48.218;16.414;2024-03-22T13:32:36;16.60;50.30
39103;DHT22;24847;48.218;16.414;2024-03-22T13:37:38;16.60;49.60
39103;DHT22;24847;48.218;16.414;2024-03-22T13:42:40;16.50;51.90
39103;DHT22;24847;48.218;16.414;2024-03-22T13:47:43;16.50;51.60
39103;DHT22;24847;48.218;16.414;2024-03-22T13:52:46;16.70;50.30
39103;DHT22;24847;48.218;16.414;2024-03-22T13:57:48;16.50;50.40
39103;DHT22;24847;48.218;16.414;2024-03-22T14:02:52;16.60;51.70
39103;DHT22;24847;48.218;16.414;2024-03-22T14:07:56;16.50;51.20
39103;DHT22;24847;48.218;16.414;2024-03-22T14:12:58;16.60;51.80
39103;DHT22;24847;48.218;16.414;2024-03-22T14:18:02;16.70;51.20
39103;DHT22;24847;48.218;16.414;2024-03-22T14:23:05;16.10;53.20
39103;DHT22;24847;48.218;16.414;2024-03-22T14:28:07;16.50;50.20
39103;DHT22;24847;48.218;16.414;2024-03-22T14:33:12;16.60;50.40
39103;DHT22;24847;48.218;16.414;2024-03-22T14:38:14;16.60;51.00
39103;DHT22;24847;48.218;16.414;2024-03-22T14:43:16;16.50;51.30
39103;DHT22;24847;48.218;16.414;2024-03-22T14:48:19;16.60;49.10
39103;DHT22;24847;48.218;16.414;2024-03-22T14:53:22;16.60;48.80
39103;DHT22;24847;48.218;16.414;2024-03-22T14:58:24;16.60;50.60
39103;DHT22;24847;48.218;16.414;2024-03-22T15:03:28;16.50;49.20
39103;DHT22;24847;48.218;16.414;2024-03-22T15:08:31;16.10;50.50
39103;DHT22;24847;48.218;16.414;2024-03-22T15:13:33;16.10;50.50
39103;DHT22;24847;48.218;16.414;2024-03-22T15:18:37;16.50;48.30
39103;DHT22;24847;48.218;16.414;2024-03-22T15:23:41;16.40;48.10
39103;DHT22;24847;48.218;16.414;2024-03-22T15:28:43;16.50;48.20
39103;DHT22;24847;48.218;16.414;2024-03-22T15:33:46;16.40;46.50
39103;DHT22;24847;48.218;16.414;2024-03-22T15:38:48;16.40;47.30
39103;DHT22;24847;48.218;16.414;2024-03-22T15:43:51;16.50;48.20
39103;DHT22;24847;48.218;16.414;2024-03-22T15:48:54;16.50;47.80
39103;DHT22;24847;48.218;16.414;2024-03-22T15:53:56;16.40;47.20
39103;DHT22;24847;48.218;16.414;2024-03-22T15:58:59;16.40;47.10
39103;DHT22;24847;48.218;16.414;2024-03-22T16:04:02;16.50;47.70
39103;DHT22;24847;48.218;16.414;2024-03-22T16:09:05;16.30;48.30
39103;DHT22;24847;48.218;16.414;2024-03-22T16:14:10;16.40;47.80
39103;DHT22;24847;48.218;16.414;2024-03-22T16:19:13;16.30;48.60
39103;DHT22;24847;48.218;16.414;2024-03-22T16:24:16;16.20;49.10
39103;DHT22;24847;48.218;16.414;2024-03-22T16:29:20;16.20;49.70
39103;DHT22;24847;48.218;16.414;2024-03-22T16:34:26;16.20;49.80
39103;DHT22;24847;48.218;16.414;2024-03-22T16:39:28;16.00;50.30
39103;DHT22;24847;48.218;16.414;2024-03-22T16:44:30;16.20;49.90
39103;DHT22;24847;48.218;16.414;2024-03-22T16:49:35;16.20;50.20
39103;DHT22;24847;48.218;16.414;2024-03-22T16:54:37;15.90;51.60
39103;DHT22;24847;48.218;16.414;2024-03-22T16:59:40;16.00;52.10
39103;DHT22;24847;48.218;16.414;2024-03-22T17:04:44;16.10;52.30
39103;DHT22;24847;48.218;16.414;2024-03-22T17:09:46;16.00;52.50
39103;DHT22;24847;48.218;16.414;2024-03-22T17:14:50;16.00;53.40
39103;DHT22;24847;48.218;16.414;2024-03-22T17:19:53;16.00;54.10
39103;DHT22;24847;48.218;16.414;2024-03-22T17:24:56;16.00;53.60
39103;DHT22;24847;48.218;16.414;2024-03-22T17:29:58;16.00;53.80
39103;DHT22;24847;48.218;16.414;2024-03-22T17:35:01;15.90;54.30
39103;DHT22;24847;48.218;16.414;2024-03-22T17:40:04;15.90;55.20
39103;DHT22;24847;48.218;16.414;2024-03-22T17:45:08;16.00;54.60
39103;DHT22;24847;48.218;16.414;2024-03-22T17:50:12;15.80;55.00
39103;DHT22;24847;48.218;16.414;2024-03-22T17:55:14;16.00;54.70
39103;DHT22;24847;48.218;16.414;2024-03-22T18:00:17;15.80;55.80
39103;DHT22;24847;48.218;16.414;2024-03-22T18:05:21;15.80;55.70
39103;DHT22;24847;48.218;16.414;2024-03-22T18:10:23;15.70;55.40
39103;DHT22;24847;48.218;16.414;2024-03-22T18:15:26;15.80;56.80
39103;DHT22;24847;48.218;16.414;2024-03-22T18:20:30;15.70;57.20
39103;DHT22;24847;48.218;16.414;2024-03-22T18:25:32;15.90;55.60
39103;DHT22;24847;48.218;16.414;2024-03-22T18:30:34;15.80;56.20
39103;DHT22;24847;48.218;16.414;2024-03-22T18:35:41;15.90;55.50
39103;DHT22;24847;48.218;16.414;2024-03-22T18:40:44;15.80;57.70
39103;DHT22;24847;48.218;16.414;2024-03-22T18:45:46;15.90;56.20
39103;DHT22;24847;48.218;16.414;2024-03-22T18:50:51;15.80;56.80
39103;DHT22;24847;48.218;16.414;2024-03-22T18:55:53;15.90;56.30
39103;DHT22;24847;48.218;16.414;2024-03-22T19:00:55;15.60;58.10
39103;DHT22;24847;48.218;16.414;2024-03-22T19:05:58;15.70;56.90
39103;DHT22;24847;48.218;16.414;2024-03-22T19:11:01;15.80;57.50
39103;DHT22;24847;48.218;16.414;2024-03-22T19:16:04;15.80;56.80
39103;DHT22;24847;48.218;16.414;2024-03-22T19:21:07;15.80;57.10
39103;DHT22;24847;48.218;16.414;2024-03-22T19:26:10;15.90;56.50
39103;DHT22;24847;48.218;16.414;2024-03-22T19:31:12;15.80;58.80
39103;DHT22;24847;48.218;16.414;2024-03-22T19:36:17;15.70;57.90
39103;DHT22;24847;48.218;16.414;2024-03-22T19:41:20;15.70;58.20
39103;DHT22;24847;48.218;16.414;2024-03-22T19:46:23;15.60;57.80
39103;DHT22;24847;48.218;16.414;2024-03-22T19:51:27;15.40;58.10
39103;DHT22;24847;48.218;16.414;2024-03-22T19:56:30;15.40;58.60
39103;DHT22;24847;48.218;16.414;2024-03-22T20:01:32;15.30;58.40
39103;DHT22;24847;48.218;16.414;2024-03-22T20:06:36;15.30;58.80
39103;DHT22;24847;48.218;16.414;2024-03-22T20:11:38;15.30;58.20
39103;DHT22;24847;48.218;16.414;2024-03-22T20:16:40;15.20;58.40
39103;DHT22;24847;48.218;16.414;2024-03-22T20:21:44;15.20;58.60
39103;DHT22;24847;48.218;16.414;2024-03-22T20:26:48;15.20;57.70
39103;DHT22;24847;48.218;16.414;2024-03-22T20:31:50;15.30;57.20
39103;DHT22;24847;48.218;16.414;2024-03-22T20:36:54;15.30;57.30
